createdAt,value
2017-04-28T00:00:27.740Z,15.19
2017-04-28T00:00:56.096Z,15.22
2017-04-28T00:01:24.379Z,15.2
2017-04-28T00:02:35.620Z,15.25
2017-04-28T00:03:03.920Z,15.19
2017-04-28T00:03:31.999Z,15.25
2017-04-28T00:04:00.357Z,15.26
2017-04-28T00:04:28.425Z,15.25
2017-04-28T00:04:56.782Z,15.27
2017-04-28T00:05:25.113Z,15.19
2017-04-28T00:06:19.015Z,15.23
2017-04-28T00:06:47.224Z,15.3
2017-04-28T00:07:15.491Z,15.26
2017-04-28T00:07:43.763Z,15.27
2017-04-28T00:08:55.117Z,15.33
2017-04-28T00:09:23.479Z,15.38
2017-04-28T00:09:51.831Z,15.32
2017-04-28T00:10:20.093Z,15.26
2017-04-28T00:10:48.250Z,15.32
2017-04-28T00:11:16.517Z,15.36
2017-04-28T00:11:44.842Z,15.38
2017-04-28T00:12:13.169Z,15.35
2017-04-28T00:12:41.398Z,15.32
2017-04-28T00:13:09.662Z,15.33
2017-04-28T00:13:37.943Z,15.35
2017-04-28T00:14:49.369Z,15.33
2017-04-28T00:15:17.669Z,15.33
2017-04-28T00:15:45.933Z,15.33
2017-04-28T00:16:14.196Z,15.32
2017-04-28T00:16:42.354Z,15.32
2017-04-28T00:17:10.618Z,15.33
2017-04-28T00:17:38.675Z,15.35
2017-04-28T00:18:08.331Z,15.33
2017-04-28T00:18:36.469Z,15.3
2017-04-28T00:19:04.837Z,15.23
2017-04-28T00:19:33.200Z,15.3
2017-04-28T00:20:44.524Z,15.41
2017-04-28T00:21:12.897Z,15.3
2017-04-28T00:21:41.224Z,15.32
2017-04-28T00:22:09.563Z,15.32
2017-04-28T00:22:37.798Z,15.35
2017-04-28T00:23:06.132Z,15.36
2017-04-28T00:23:34.260Z,15.33
2017-04-28T00:24:02.560Z,15.29
2017-04-28T00:24:30.678Z,15.4
2017-04-28T00:24:58.925Z,15.36
2017-04-28T00:25:27.183Z,15.23
2017-04-28T00:26:38.487Z,15.26
2017-04-28T00:27:06.857Z,15.23
2017-04-28T00:27:35.086Z,15.26
2017-04-28T00:28:03.433Z,15.22
2017-04-28T00:28:31.665Z,15.17
2017-04-28T00:28:59.908Z,15.25
2017-04-28T00:29:28.041Z,15.25
2017-04-28T00:29:56.349Z,15.22
2017-04-28T00:30:24.650Z,15.17
2017-04-28T00:30:52.800Z,15.12
2017-04-28T00:31:21.119Z,15.14
2017-04-28T00:32:32.533Z,15.11
2017-04-28T00:33:00.811Z,15.14
2017-04-28T00:33:29.081Z,15.15
2017-04-28T00:33:57.455Z,15.15
2017-04-28T00:34:25.631Z,15.1
2017-04-28T00:34:53.963Z,15.17
2017-04-28T00:35:22.300Z,15.15
2017-04-28T00:35:50.568Z,15.11
2017-04-28T00:36:18.883Z,15.14
2017-04-28T00:36:47.134Z,15.1
2017-04-28T00:37:15.359Z,15.04
2017-04-28T00:38:26.677Z,15.19
2017-04-28T00:38:54.869Z,15.08
2017-04-28T00:39:23.133Z,15.07
2017-04-28T00:39:51.425Z,15.03
2017-04-28T00:40:19.684Z,15.08
2017-04-28T00:40:47.916Z,14.99
2017-04-28T00:41:16.255Z,15.03
2017-04-28T00:41:44.624Z,15.03
2017-04-28T00:42:12.842Z,15.01
2017-04-28T00:42:41.185Z,15.01
2017-04-28T00:43:09.416Z,14.99
2017-04-28T00:44:20.835Z,15.04
2017-04-28T00:44:49.019Z,14.97
2017-04-28T00:45:17.279Z,14.92
2017-04-28T00:45:45.651Z,14.99
2017-04-28T00:46:14.008Z,14.95
2017-04-28T00:46:42.152Z,14.97
2017-04-28T00:47:10.296Z,14.95
2017-04-28T00:47:38.567Z,14.92
2017-04-28T00:48:06.783Z,14.96
2017-04-28T00:48:35.028Z,15.01
2017-04-28T00:49:03.345Z,14.97
2017-04-28T00:50:14.758Z,14.87
2017-04-28T00:50:43.037Z,14.9
2017-04-28T00:51:11.385Z,14.87
2017-04-28T00:51:39.670Z,14.85
2017-04-28T00:52:08.032Z,14.87
2017-04-28T00:52:36.276Z,14.86
2017-04-28T00:53:04.427Z,14.85
2017-04-28T00:53:32.601Z,14.86
2017-04-28T00:54:00.814Z,14.9
2017-04-28T00:54:29.161Z,14.97
2017-04-28T00:54:57.212Z,14.9
2017-04-28T00:56:08.619Z,14.95
2017-04-28T00:56:36.898Z,14.92
2017-04-28T00:57:05.066Z,14.92
2017-04-28T00:57:33.446Z,14.85
2017-04-28T00:58:01.712Z,14.86
2017-04-28T00:58:29.947Z,14.82
2017-04-28T00:58:58.193Z,14.89
2017-04-28T00:59:26.377Z,14.89
2017-04-28T00:59:54.592Z,14.9
2017-04-28T01:00:22.844Z,14.89
2017-04-28T01:00:51.163Z,14.86
2017-04-28T01:02:02.305Z,14.87
2017-04-28T01:02:30.592Z,14.93
2017-04-28T01:02:58.852Z,14.92
2017-04-28T01:03:27.145Z,14.92
2017-04-28T01:03:55.408Z,14.86
2017-04-28T01:04:23.673Z,14.85
2017-04-28T01:04:51.918Z,14.87
2017-04-28T01:05:20.187Z,14.87
2017-04-28T01:05:48.493Z,14.89
2017-04-28T01:06:16.749Z,14.89
2017-04-28T01:06:45.070Z,14.86
2017-04-28T01:07:56.491Z,14.86
2017-04-28T01:08:24.768Z,14.87
2017-04-28T01:08:53.030Z,14.85
2017-04-28T01:09:21.410Z,14.89
2017-04-28T01:09:49.768Z,14.89
2017-04-28T01:10:18.009Z,14.83
2017-04-28T01:10:46.246Z,14.92
2017-04-28T01:11:14.512Z,14.9
2017-04-28T01:11:42.725Z,14.92
2017-04-28T01:12:11.064Z,14.89
2017-04-28T01:12:39.296Z,14.87
2017-04-28T01:13:50.718Z,14.9
2017-04-28T01:14:19.086Z,14.82
2017-04-28T01:14:47.162Z,14.89
2017-04-28T01:15:15.540Z,14.86
2017-04-28T01:15:43.809Z,14.86
2017-04-28T01:16:12.043Z,14.86
2017-04-28T01:16:40.378Z,15.03
2017-04-28T01:17:08.738Z,15.01
2017-04-28T01:17:36.855Z,14.95
2017-04-28T01:18:05.014Z,14.87
2017-04-28T01:18:33.238Z,14.96
2017-04-28T01:19:44.652Z,14.96
2017-04-28T01:20:12.932Z,14.97
2017-04-28T01:20:41.196Z,14.9
2017-04-28T01:21:09.483Z,14.9
2017-04-28T01:21:37.838Z,14.96
2017-04-28T01:22:06.173Z,14.96
2017-04-28T01:22:34.323Z,14.97
2017-04-28T01:23:02.690Z,14.96
2017-04-28T01:23:30.907Z,14.97
2017-04-28T01:23:59.915Z,14.96
2017-04-28T01:24:28.142Z,14.96
2017-04-28T01:25:39.459Z,14.97
2017-04-28T01:26:07.826Z,14.99
2017-04-28T01:26:35.989Z,14.92
2017-04-28T01:27:04.267Z,14.99
2017-04-28T01:27:32.530Z,14.95
2017-04-28T01:28:00.763Z,14.96
2017-04-28T01:28:29.096Z,14.97
2017-04-28T01:28:57.277Z,14.99
2017-04-28T01:29:25.489Z,15.01
2017-04-28T01:29:53.828Z,15.01
2017-04-28T01:30:22.145Z,14.97
2017-04-28T01:31:33.467Z,14.99
2017-04-28T01:32:01.835Z,15.04
2017-04-28T01:32:30.189Z,15.01
2017-04-28T01:32:58.565Z,14.99
2017-04-28T01:33:26.922Z,15.01
2017-04-28T01:33:55.157Z,14.99
2017-04-28T01:34:23.497Z,14.87
2017-04-28T01:34:51.676Z,15.05
2017-04-28T01:35:19.893Z,15.07
2017-04-28T01:35:48.241Z,14.99
2017-04-28T01:36:16.373Z,15.01
2017-04-28T01:37:27.691Z,14.99
2017-04-28T01:37:56.065Z,15.01
2017-04-28T01:38:24.327Z,15.03
2017-04-28T01:38:52.612Z,15.01
2017-04-28T01:39:20.971Z,15.07
2017-04-28T01:39:49.206Z,15.1
2017-04-28T01:40:17.346Z,15.04
2017-04-28T01:40:45.707Z,15.01
2017-04-28T01:41:14.018Z,15.07
2017-04-28T01:41:42.271Z,15.01
2017-04-28T01:42:10.589Z,15.03
2017-04-28T01:43:22.007Z,15.03
2017-04-28T01:43:50.380Z,15.01
2017-04-28T01:44:18.550Z,14.99
2017-04-28T01:44:46.930Z,15.05
2017-04-28T01:45:15.196Z,15.1
2017-04-28T01:45:43.432Z,15.01
2017-04-28T01:46:11.673Z,15.03
2017-04-28T01:46:40.042Z,15.03
2017-04-28T01:47:08.345Z,15.01
2017-04-28T01:47:36.606Z,14.99
2017-04-28T01:48:04.924Z,14.96
2017-04-28T01:49:16.243Z,15.01
2017-04-28T01:49:44.426Z,15.05
2017-04-28T01:50:12.733Z,15.04
2017-04-28T01:50:41.028Z,15.07
2017-04-28T01:51:09.292Z,15.07
2017-04-28T01:51:37.437Z,15.03
2017-04-28T01:52:05.584Z,15.01
2017-04-28T01:52:33.959Z,15.08
2017-04-28T01:53:01.985Z,15.12
2017-04-28T01:53:30.240Z,15.01
2017-04-28T01:53:58.562Z,15.05
2017-04-28T01:55:09.885Z,15.07
2017-04-28T01:55:38.257Z,15.1
2017-04-28T01:56:06.425Z,15.03
2017-04-28T01:56:34.808Z,15.14
2017-04-28T01:57:03.072Z,15.03
2017-04-28T01:57:31.311Z,15.04
2017-04-28T01:57:59.551Z,15.05
2017-04-28T01:58:27.831Z,15.05
2017-04-28T01:58:56.044Z,15.08
2017-04-28T01:59:24.299Z,15.04
2017-04-28T01:59:52.522Z,15.03
2017-04-28T02:01:03.938Z,15.07
2017-04-28T02:01:32.144Z,15.05
2017-04-28T02:02:00.385Z,15.07
2017-04-28T02:02:28.762Z,15.04
2017-04-28T02:02:57.123Z,15.08
2017-04-28T02:03:25.362Z,15.08
2017-04-28T02:03:53.511Z,15.05
2017-04-28T02:04:21.874Z,15.12
2017-04-28T02:04:50.184Z,15.07
2017-04-28T02:05:18.531Z,14.97
2017-04-28T02:05:46.854Z,15.04
2017-04-28T02:06:58.269Z,15.03
2017-04-28T02:07:26.639Z,15.07
2017-04-28T02:07:54.901Z,15.07
2017-04-28T02:08:23.278Z,15.08
2017-04-28T02:08:51.630Z,15.01
2017-04-28T02:09:19.869Z,15.07
2017-04-28T02:09:48.106Z,15.03
2017-04-28T02:10:16.376Z,15.05
2017-04-28T02:10:44.591Z,15.03
2017-04-28T02:11:12.840Z,15.01
2017-04-28T02:11:41.163Z,15.03
2017-04-28T02:12:52.577Z,15.05
2017-04-28T02:13:20.856Z,14.97
2017-04-28T02:13:49.212Z,15.05
2017-04-28T02:14:17.590Z,15.04
2017-04-28T02:14:45.945Z,15.05
2017-04-28T02:15:14.273Z,15.1
2017-04-28T02:15:42.614Z,15.03
2017-04-28T02:16:10.979Z,14.99
2017-04-28T02:16:39.188Z,15.04
2017-04-28T02:17:07.531Z,15.1
2017-04-28T02:17:35.855Z,15.04
2017-04-28T02:18:47.268Z,15.08
2017-04-28T02:19:15.541Z,15.08
2017-04-28T02:19:43.617Z,14.99
2017-04-28T02:20:11.995Z,15.12
2017-04-28T02:20:40.258Z,15.14
2017-04-28T02:21:08.588Z,15.07
2017-04-28T02:21:36.830Z,15.03
2017-04-28T02:22:05.195Z,14.97
2017-04-28T02:22:33.505Z,15.05
2017-04-28T02:23:01.848Z,15.04
2017-04-28T02:23:30.167Z,15.03
2017-04-28T02:24:41.488Z,15.05
2017-04-28T02:25:09.772Z,14.99
2017-04-28T02:25:38.063Z,15.07
2017-04-28T02:26:06.348Z,15.01
2017-04-28T02:26:34.703Z,14.99
2017-04-28T02:27:03.035Z,15.07
2017-04-28T02:27:31.276Z,15.03
2017-04-28T02:27:59.555Z,14.99
2017-04-28T02:28:27.858Z,14.97
2017-04-28T02:28:56.105Z,15.05
2017-04-28T02:29:24.427Z,15.01
2017-04-28T02:30:35.849Z,14.99
2017-04-28T02:31:04.217Z,14.95
2017-04-28T02:31:32.384Z,15.01
2017-04-28T02:32:00.760Z,15.03
2017-04-28T02:32:29.119Z,15.01
2017-04-28T02:32:57.357Z,14.99
2017-04-28T02:33:25.602Z,15.01
2017-04-28T02:33:53.877Z,14.97
2017-04-28T02:34:22.032Z,15.03
2017-04-28T02:34:50.249Z,15.01
2017-04-28T02:35:18.568Z,15.03
2017-04-28T02:36:29.981Z,15.01
2017-04-28T02:36:58.354Z,15.01
2017-04-28T02:37:26.525Z,15.01
2017-04-28T02:37:54.717Z,15.05
2017-04-28T02:38:22.978Z,14.97
2017-04-28T02:38:51.225Z,14.95
2017-04-28T02:39:19.467Z,14.97
2017-04-28T02:39:47.739Z,14.93
2017-04-28T02:40:16.041Z,14.95
2017-04-28T02:40:44.473Z,14.97
2017-04-28T02:41:12.708Z,14.99
2017-04-28T02:42:24.123Z,14.97
2017-04-28T02:42:52.498Z,14.97
2017-04-28T02:43:20.857Z,14.95
2017-04-28T02:43:49.233Z,14.99
2017-04-28T02:44:17.493Z,14.96
2017-04-28T02:44:45.638Z,15.03
2017-04-28T02:45:13.881Z,14.95
2017-04-28T02:45:42.246Z,14.96
2017-04-28T02:46:10.366Z,14.97
2017-04-28T02:46:38.526Z,15.05
2017-04-28T02:47:06.754Z,14.93
2017-04-28T02:48:18.160Z,14.97
2017-04-28T02:48:46.531Z,14.93
2017-04-28T02:49:14.699Z,14.87
2017-04-28T02:49:43.079Z,14.99
2017-04-28T02:50:11.432Z,14.93
2017-04-28T02:50:39.492Z,14.95
2017-04-28T02:51:07.739Z,14.97
2017-04-28T02:51:36.013Z,15.03
2017-04-28T02:52:04.238Z,14.99
2017-04-28T02:52:32.493Z,15.01
2017-04-28T02:53:00.810Z,15.01
2017-04-28T02:54:12.260Z,15.03
2017-04-28T02:54:40.510Z,14.99
2017-04-28T02:55:08.768Z,14.97
2017-04-28T02:55:37.149Z,15.05
2017-04-28T02:56:05.505Z,15.03
2017-04-28T02:56:33.839Z,15.03
2017-04-28T02:57:02.081Z,15.04
2017-04-28T02:57:30.447Z,14.97
2017-04-28T02:57:58.755Z,14.95
2017-04-28T02:58:27.009Z,15.01
2017-04-28T02:58:55.331Z,15.01
2017-04-28T03:00:06.560Z,15.01
2017-04-28T03:00:34.933Z,15.04
2017-04-28T03:01:03.194Z,14.97
2017-04-28T03:01:31.565Z,14.99
2017-04-28T03:01:59.834Z,15.03
2017-04-28T03:02:28.161Z,15.01
2017-04-28T03:02:56.406Z,15.07
2017-04-28T03:03:24.683Z,14.97
2017-04-28T03:03:52.899Z,14.93
2017-04-28T03:04:21.247Z,14.93
2017-04-28T03:04:49.472Z,14.97
2017-04-28T03:06:00.794Z,15.03
2017-04-28T03:06:29.076Z,14.93
2017-04-28T03:06:57.243Z,14.99
2017-04-28T03:07:25.526Z,14.99
2017-04-28T03:07:53.795Z,14.95
2017-04-28T03:08:22.038Z,15.03
2017-04-28T03:08:50.280Z,15.01
2017-04-28T03:09:18.552Z,14.99
2017-04-28T03:09:46.859Z,14.99
2017-04-28T03:10:15.112Z,14.99
2017-04-28T03:10:43.432Z,15.03
2017-04-28T03:11:54.847Z,15.05
2017-04-28T03:12:23.220Z,15.03
2017-04-28T03:12:51.482Z,15.01
2017-04-28T03:13:19.780Z,15.01
2017-04-28T03:13:48.133Z,15.1
2017-04-28T03:14:16.372Z,15.03
2017-04-28T03:14:44.602Z,15.03
2017-04-28T03:15:12.866Z,14.99
2017-04-28T03:15:41.172Z,14.96
2017-04-28T03:16:09.509Z,15.05
2017-04-28T03:16:37.830Z,15.03
2017-04-28T03:17:49.061Z,14.99
2017-04-28T03:18:17.344Z,15.08
2017-04-28T03:18:45.508Z,15.01
2017-04-28T03:19:13.898Z,14.97
2017-04-28T03:19:42.094Z,15.01
2017-04-28T03:20:10.420Z,14.97
2017-04-28T03:20:38.743Z,14.9
2017-04-28T03:21:07.014Z,15.03
2017-04-28T03:21:35.140Z,15.03
2017-04-28T03:22:03.487Z,14.96
2017-04-28T03:22:31.613Z,15.03
2017-04-28T03:23:42.842Z,15.08
2017-04-28T03:24:11.123Z,15.03
2017-04-28T03:24:39.382Z,15.03
2017-04-28T03:25:07.773Z,15.03
2017-04-28T03:25:36.119Z,15.05
2017-04-28T03:26:04.454Z,15.04
2017-04-28T03:26:32.687Z,15.04
2017-04-28T03:27:00.955Z,15.04
2017-04-28T03:27:29.174Z,15.04
2017-04-28T03:27:57.417Z,15.07
2017-04-28T03:28:25.735Z,15.01
2017-04-28T03:29:37.158Z,14.99
2017-04-28T03:30:05.532Z,14.96
2017-04-28T03:30:33.882Z,14.99
2017-04-28T03:31:02.181Z,14.93
2017-04-28T03:31:30.436Z,14.96
2017-04-28T03:31:58.581Z,14.93
2017-04-28T03:32:26.808Z,14.97
2017-04-28T03:32:55.173Z,14.97
2017-04-28T03:33:23.482Z,14.85
2017-04-28T03:33:51.820Z,14.92
2017-04-28T03:34:20.141Z,14.89
2017-04-28T03:35:31.470Z,14.9
2017-04-28T03:35:59.841Z,14.86
2017-04-28T03:36:28.194Z,14.96
2017-04-28T03:36:56.582Z,14.89
2017-04-28T03:37:24.945Z,14.96
2017-04-28T03:37:53.004Z,14.97
2017-04-28T03:38:21.234Z,14.97
2017-04-28T03:38:49.496Z,14.96
2017-04-28T03:39:17.710Z,14.9
2017-04-28T03:39:45.964Z,14.97
2017-04-28T03:40:14.187Z,15.01
2017-04-28T03:41:25.326Z,14.97
2017-04-28T03:41:53.606Z,14.97
2017-04-28T03:42:21.867Z,14.93
2017-04-28T03:42:50.084Z,14.97
2017-04-28T03:43:18.336Z,14.85
2017-04-28T03:43:46.573Z,15.01
2017-04-28T03:44:14.893Z,14.93
2017-04-28T03:44:43.169Z,14.93
2017-04-28T03:45:11.374Z,14.95
2017-04-28T03:45:39.636Z,14.97
2017-04-28T03:46:07.865Z,14.93
2017-04-28T03:47:19.289Z,14.92
2017-04-28T03:47:47.661Z,14.96
2017-04-28T03:48:15.921Z,14.87
2017-04-28T03:48:44.311Z,14.86
2017-04-28T03:49:12.656Z,14.92
2017-04-28T03:49:40.892Z,14.85
2017-04-28T03:50:09.218Z,14.86
2017-04-28T03:50:37.482Z,14.86
2017-04-28T03:51:05.791Z,14.93
2017-04-28T03:51:34.144Z,14.89
2017-04-28T03:52:02.460Z,14.87
2017-04-28T03:53:13.879Z,14.87
2017-04-28T03:53:42.163Z,14.9
2017-04-28T03:54:10.505Z,14.92
2017-04-28T03:54:38.807Z,14.83
2017-04-28T03:55:07.157Z,14.92
2017-04-28T03:55:35.391Z,14.87
2017-04-28T03:56:03.618Z,14.87
2017-04-28T03:56:31.980Z,14.89
2017-04-28T03:57:00.191Z,14.89
2017-04-28T03:57:28.446Z,14.89
2017-04-28T03:57:56.768Z,14.86
2017-04-28T03:59:08.195Z,14.89
2017-04-28T03:59:36.567Z,14.9
2017-04-28T04:00:04.821Z,14.87
2017-04-28T04:00:33.214Z,14.92
2017-04-28T04:01:01.371Z,14.87
2017-04-28T04:01:29.610Z,14.87
2017-04-28T04:01:57.838Z,14.92
2017-04-28T04:02:26.197Z,14.89
2017-04-28T04:02:54.342Z,14.9
2017-04-28T04:03:22.593Z,14.9
2017-04-28T04:03:50.917Z,14.93
2017-04-28T04:05:02.334Z,15.01
2017-04-28T04:05:30.612Z,14.86
2017-04-28T04:05:58.777Z,14.86
2017-04-28T04:06:27.171Z,14.87
2017-04-28T04:06:55.428Z,14.89
2017-04-28T04:07:23.568Z,14.86
2017-04-28T04:07:51.798Z,14.9
2017-04-28T04:08:20.070Z,14.89
2017-04-28T04:08:48.382Z,14.87
2017-04-28T04:09:16.730Z,14.9
2017-04-28T04:09:45.054Z,14.87
2017-04-28T04:10:56.474Z,14.89
2017-04-28T04:11:24.845Z,14.87
2017-04-28T04:11:53.197Z,14.9
2017-04-28T04:12:21.585Z,14.9
2017-04-28T04:12:49.837Z,14.93
2017-04-28T04:13:18.075Z,14.9
2017-04-28T04:13:46.397Z,14.83
2017-04-28T04:14:14.755Z,14.87
2017-04-28T04:14:43.060Z,15.01
2017-04-28T04:15:11.308Z,14.86
2017-04-28T04:15:39.630Z,14.89
2017-04-28T04:16:50.963Z,14.89
2017-04-28T04:17:19.334Z,14.97
2017-04-28T04:17:47.510Z,14.97
2017-04-28T04:18:15.807Z,15.01
2017-04-28T04:18:44.064Z,14.9
2017-04-28T04:19:12.395Z,14.85
2017-04-28T04:19:40.717Z,14.96
2017-04-28T04:20:09.069Z,14.92
2017-04-28T04:20:37.280Z,14.9
2017-04-28T04:21:05.618Z,14.86
2017-04-28T04:21:33.940Z,14.89
2017-04-28T04:22:45.087Z,14.95
2017-04-28T04:23:13.270Z,14.87
2017-04-28T04:23:41.534Z,14.87
2017-04-28T04:24:09.835Z,14.86
2017-04-28T04:24:38.219Z,14.89
2017-04-28T04:25:06.426Z,14.9
2017-04-28T04:25:34.653Z,14.86
2017-04-28T04:26:02.920Z,14.87
2017-04-28T04:26:31.228Z,14.89
2017-04-28T04:26:59.567Z,14.86
2017-04-28T04:27:27.890Z,14.9
2017-04-28T04:28:39.133Z,14.92
2017-04-28T04:29:07.502Z,14.86
2017-04-28T04:29:35.848Z,14.85
2017-04-28T04:30:04.157Z,14.87
2017-04-28T04:30:32.406Z,14.89
2017-04-28T04:31:00.732Z,14.85
2017-04-28T04:31:28.869Z,14.87
2017-04-28T04:31:57.232Z,14.93
2017-04-28T04:32:25.538Z,14.83
2017-04-28T04:32:53.788Z,14.83
2017-04-28T04:33:22.017Z,14.83
2017-04-28T04:34:33.341Z,14.87
2017-04-28T04:35:01.626Z,14.89
2017-04-28T04:35:29.975Z,14.89
2017-04-28T04:35:58.365Z,14.86
2017-04-28T04:36:26.712Z,14.93
2017-04-28T04:36:55.042Z,14.89
2017-04-28T04:37:23.369Z,14.87
2017-04-28T04:37:51.635Z,14.87
2017-04-28T04:38:19.948Z,14.86
2017-04-28T04:38:48.295Z,14.86
2017-04-28T04:39:16.617Z,14.92
2017-04-28T04:40:28.044Z,14.87
2017-04-28T04:40:56.415Z,14.83
2017-04-28T04:41:24.672Z,14.89
2017-04-28T04:41:53.068Z,14.92
2017-04-28T04:42:21.419Z,14.87
2017-04-28T04:42:49.569Z,14.85
2017-04-28T04:43:17.805Z,14.95
2017-04-28T04:43:45.977Z,14.9
2017-04-28T04:44:14.095Z,14.95
2017-04-28T04:44:42.442Z,14.85
2017-04-28T04:45:10.766Z,14.95
2017-04-28T04:46:22.097Z,14.9
2017-04-28T04:46:50.464Z,14.86
2017-04-28T04:47:18.815Z,14.92
2017-04-28T04:47:47.204Z,14.87
2017-04-28T04:48:15.555Z,14.85
2017-04-28T04:48:43.791Z,14.87
2017-04-28T04:49:12.118Z,14.85
2017-04-28T04:49:40.381Z,14.86
2017-04-28T04:50:08.598Z,14.87
2017-04-28T04:50:36.945Z,14.87
2017-04-28T04:51:05.260Z,14.85
2017-04-28T04:52:16.681Z,14.86
2017-04-28T04:52:44.966Z,14.87
2017-04-28T04:53:13.226Z,14.87
2017-04-28T04:53:41.619Z,14.79
2017-04-28T04:54:09.969Z,14.87
2017-04-28T04:54:38.199Z,14.87
2017-04-28T04:55:06.429Z,14.82
2017-04-28T04:55:34.790Z,14.87
2017-04-28T04:56:03.003Z,14.92
2017-04-28T04:56:31.342Z,14.86
2017-04-28T04:56:59.661Z,14.86
2017-04-28T04:58:11.085Z,14.89
2017-04-28T04:58:39.454Z,14.87
2017-04-28T04:59:07.808Z,14.86
2017-04-28T04:59:36.195Z,14.87
2017-04-28T05:00:04.540Z,14.86
2017-04-28T05:00:32.778Z,14.86
2017-04-28T05:01:00.924Z,14.83
2017-04-28T05:01:29.285Z,14.9
2017-04-28T05:01:57.504Z,14.95
2017-04-28T05:02:25.849Z,14.86
2017-04-28T05:02:54.171Z,14.87
2017-04-28T05:04:05.587Z,14.83
2017-04-28T05:04:33.962Z,14.86
2017-04-28T05:05:02.315Z,14.89
2017-04-28T05:05:30.702Z,14.82
2017-04-28T05:05:59.056Z,14.89
2017-04-28T05:06:27.200Z,14.93
2017-04-28T05:06:55.338Z,14.89
2017-04-28T05:07:23.699Z,14.92
2017-04-28T05:07:52.009Z,14.97
2017-04-28T05:08:20.351Z,14.89
2017-04-28T05:08:48.667Z,14.83
2017-04-28T05:10:00.092Z,14.99
2017-04-28T05:10:28.464Z,14.97
2017-04-28T05:10:56.819Z,14.9
2017-04-28T05:11:25.212Z,14.86
2017-04-28T05:11:53.463Z,14.93
2017-04-28T05:12:21.697Z,14.95
2017-04-28T05:12:49.927Z,14.92
2017-04-28T05:13:18.102Z,14.9
2017-04-28T05:13:46.411Z,14.95
2017-04-28T05:14:14.752Z,14.95
2017-04-28T05:14:43.068Z,14.95
2017-04-28T05:15:54.400Z,14.95
2017-04-28T05:16:22.773Z,14.97
2017-04-28T05:16:51.041Z,14.9
2017-04-28T05:17:19.341Z,15.01
2017-04-28T05:17:47.598Z,14.95
2017-04-28T05:18:15.924Z,15.03
2017-04-28T05:18:44.152Z,14.96
2017-04-28T05:19:12.513Z,14.96
2017-04-28T05:19:40.827Z,14.95
2017-04-28T05:20:09.173Z,14.96
2017-04-28T05:20:37.401Z,14.96
2017-04-28T05:21:48.724Z,14.96
2017-04-28T05:22:17.100Z,14.95
2017-04-28T05:22:45.455Z,14.93
2017-04-28T05:23:13.755Z,14.97
2017-04-28T05:23:42.108Z,15.01
2017-04-28T05:24:10.346Z,14.92
2017-04-28T05:24:38.587Z,14.93
2017-04-28T05:25:06.954Z,14.93
2017-04-28T05:25:35.260Z,14.93
2017-04-28T05:26:03.507Z,14.93
2017-04-28T05:26:31.733Z,14.96
2017-04-28T05:27:43.155Z,14.97
2017-04-28T05:28:11.526Z,14.87
2017-04-28T05:28:39.882Z,14.95
2017-04-28T05:29:08.270Z,14.93
2017-04-28T05:29:36.623Z,14.89
2017-04-28T05:30:04.866Z,14.92
2017-04-28T05:30:33.190Z,14.82
2017-04-28T05:31:01.456Z,14.83
2017-04-28T05:31:29.762Z,14.86
2017-04-28T05:31:58.017Z,14.9
2017-04-28T05:32:26.342Z,14.86
2017-04-28T05:33:37.670Z,14.82
2017-04-28T05:34:05.861Z,14.83
2017-04-28T05:34:34.017Z,14.83
2017-04-28T05:35:02.407Z,14.87
2017-04-28T05:35:30.661Z,14.89
2017-04-28T05:35:58.987Z,14.86
2017-04-28T05:36:27.125Z,14.85
2017-04-28T05:36:55.479Z,14.82
2017-04-28T05:37:23.787Z,14.82
2017-04-28T05:37:52.033Z,14.87
2017-04-28T05:38:20.354Z,14.87
2017-04-28T05:39:31.779Z,15.01
2017-04-28T05:40:00.061Z,14.96
2017-04-28T05:40:28.405Z,14.87
2017-04-28T05:40:56.792Z,14.87
2017-04-28T05:41:25.050Z,14.87
2017-04-28T05:41:53.384Z,14.9
2017-04-28T05:42:21.610Z,14.86
2017-04-28T05:42:49.876Z,14.79
2017-04-28T05:43:18.090Z,14.78
2017-04-28T05:43:46.432Z,14.83
2017-04-28T05:44:14.654Z,14.82
2017-04-28T05:45:26.069Z,14.86
2017-04-28T05:45:54.255Z,14.87
2017-04-28T05:46:22.505Z,14.89
2017-04-28T05:46:50.898Z,14.79
2017-04-28T05:47:19.060Z,14.79
2017-04-28T05:47:47.383Z,14.77
2017-04-28T05:48:15.710Z,14.79
2017-04-28T05:48:44.070Z,14.83
2017-04-28T05:49:12.381Z,14.89
2017-04-28T05:49:40.722Z,14.77
2017-04-28T05:50:08.944Z,14.79
2017-04-28T05:51:20.357Z,14.83
2017-04-28T05:51:48.730Z,14.78
2017-04-28T05:52:17.077Z,14.77
2017-04-28T05:52:45.469Z,14.77
2017-04-28T05:53:13.818Z,14.71
2017-04-28T05:53:42.143Z,14.71
2017-04-28T05:54:10.367Z,14.69
2017-04-28T05:54:38.727Z,14.74
2017-04-28T05:55:06.942Z,14.73
2017-04-28T05:55:35.193Z,14.74
2017-04-28T05:56:03.425Z,14.73
2017-04-28T05:57:14.737Z,14.71
2017-04-28T05:57:43.112Z,14.78
2017-04-28T05:58:11.459Z,14.7
2017-04-28T05:58:39.755Z,14.74
2017-04-28T05:59:08.106Z,14.71
2017-04-28T05:59:36.434Z,14.85
2017-04-28T06:00:04.572Z,14.71
2017-04-28T06:00:32.934Z,14.83
2017-04-28T06:01:01.242Z,14.89
2017-04-28T06:01:29.546Z,14.86
2017-04-28T06:01:58.016Z,14.82
2017-04-28T06:03:09.341Z,14.71
2017-04-28T06:03:37.715Z,14.71
2017-04-28T06:04:06.065Z,14.82
2017-04-28T06:04:34.452Z,14.78
2017-04-28T06:05:02.706Z,14.71
2017-04-28T06:05:30.938Z,14.78
2017-04-28T06:05:59.263Z,14.83
2017-04-28T06:06:27.526Z,14.87
2017-04-28T06:06:55.827Z,14.85
2017-04-28T06:07:24.167Z,14.77
2017-04-28T06:07:52.300Z,14.87
2017-04-28T06:09:03.717Z,14.86
2017-04-28T06:09:32.092Z,14.92
2017-04-28T06:10:00.343Z,14.86
2017-04-28T06:10:28.738Z,14.86
2017-04-28T06:10:56.986Z,14.89
2017-04-28T06:11:25.315Z,14.85
2017-04-28T06:11:53.546Z,14.87
2017-04-28T06:12:21.904Z,14.87
2017-04-28T06:12:50.121Z,14.86
2017-04-28T06:13:18.459Z,14.85
2017-04-28T06:13:46.689Z,14.86
2017-04-28T06:14:58.111Z,14.92
2017-04-28T06:15:26.388Z,14.89
2017-04-28T06:15:54.731Z,14.83
2017-04-28T06:16:23.125Z,14.9
2017-04-28T06:16:51.382Z,14.9
2017-04-28T06:17:19.710Z,14.85
2017-04-28T06:17:47.932Z,14.92
2017-04-28T06:18:16.201Z,14.9
2017-04-28T06:18:44.504Z,14.86
2017-04-28T06:19:12.845Z,14.85
2017-04-28T06:19:41.071Z,14.89
2017-04-28T06:20:52.394Z,15.01
2017-04-28T06:21:20.769Z,14.97
2017-04-28T06:21:49.121Z,14.93
2017-04-28T06:22:17.418Z,14.99
2017-04-28T06:22:45.770Z,14.95
2017-04-28T06:23:14.086Z,15.01
2017-04-28T06:23:42.414Z,14.97
2017-04-28T06:24:10.770Z,14.93
2017-04-28T06:24:39.079Z,14.96
2017-04-28T06:25:07.423Z,14.95
2017-04-28T06:25:35.742Z,14.97
2017-04-28T06:26:47.066Z,14.95
2017-04-28T06:27:15.342Z,14.97
2017-04-28T06:27:43.687Z,15.01
2017-04-28T06:28:12.082Z,14.96
2017-04-28T06:28:40.337Z,14.89
2017-04-28T06:29:08.668Z,14.85
2017-04-28T06:29:36.898Z,14.89
2017-04-28T06:30:05.257Z,14.85
2017-04-28T06:30:33.564Z,14.82
2017-04-28T06:31:01.627Z,14.87
2017-04-28T06:31:29.851Z,14.86
2017-04-28T06:32:41.089Z,14.89
2017-04-28T06:33:09.458Z,14.87
2017-04-28T06:33:37.528Z,14.87
2017-04-28T06:34:05.830Z,14.95
2017-04-28T06:34:34.180Z,14.87
2017-04-28T06:35:02.504Z,14.83
2017-04-28T06:35:30.731Z,14.86
2017-04-28T06:35:58.996Z,14.86
2017-04-28T06:36:27.301Z,14.78
2017-04-28T06:36:55.644Z,14.86
2017-04-28T06:37:23.863Z,14.85
2017-04-28T06:38:35.283Z,14.9
2017-04-28T06:39:03.650Z,14.78
2017-04-28T06:39:31.994Z,14.89
2017-04-28T06:40:00.387Z,14.87
2017-04-28T06:40:28.641Z,14.95
2017-04-28T06:40:56.967Z,14.89
2017-04-28T06:41:25.204Z,14.89
2017-04-28T06:41:53.464Z,14.83
2017-04-28T06:42:21.770Z,14.89
2017-04-28T06:42:50.023Z,14.93
2017-04-28T06:43:18.345Z,14.89
2017-04-28T06:44:29.671Z,14.89
2017-04-28T06:44:58.048Z,14.87
2017-04-28T06:45:26.391Z,14.9
2017-04-28T06:45:54.780Z,14.9
2017-04-28T06:46:23.127Z,14.87
2017-04-28T06:46:51.358Z,14.87
2017-04-28T06:47:19.680Z,14.9
2017-04-28T06:47:48.038Z,14.85
2017-04-28T06:48:16.355Z,14.87
2017-04-28T06:48:44.603Z,14.86
2017-04-28T06:49:12.920Z,14.9
2017-04-28T06:50:24.342Z,14.9
2017-04-28T06:50:52.619Z,14.86
2017-04-28T06:51:20.971Z,14.87
2017-04-28T06:51:49.269Z,14.87
2017-04-28T06:52:17.625Z,14.86
2017-04-28T06:52:45.947Z,14.85
2017-04-28T06:53:14.177Z,14.85
2017-04-28T06:53:42.533Z,14.87
2017-04-28T06:54:10.837Z,14.92
2017-04-28T06:54:39.083Z,14.86
2017-04-28T06:55:07.301Z,14.89
2017-04-28T06:56:18.533Z,14.9
2017-04-28T06:56:46.905Z,14.87